Time;durP1;ratioP1;P1;durP2;ratioP2;P2;SDS_P1;SDS_P2;PMS_P1;PMS_P2;Temp;Humidity;BMP_temperature;BMP_pressure;BME280_temperature;BME280_humidity;BME280_pressure;Samples;Min_cycle;Max_cycle;Signal;HPM_P1;HPM_P2
2022/10/25 00:01:18;;;;;;;10.90;2.63;;;;;;;12.00;100.00;101156.13;5033756;28;20041;-75
2022/10/25 00:03:43;;;;;;;14.90;2.80;;;;;;;12.01;100.00;101157.81;5051594;28;20028;-75
2022/10/25 00:06:10;;;;;;;13.98;2.83;;;;;;;12.04;100.00;101162.03;5053393;28;20102;-76
2022/10/25 00:08:36;;;;;;;9.27;3.10;;;;;;;12.06;100.00;101173.38;5054925;28;20037;-76
2022/10/25 00:11:01;;;;;;;9.10;2.50;;;;;;;12.10;100.00;101166.78;5055188;28;20029;-75
2022/10/25 00:13:26;;;;;;;11.27;2.75;;;;;;;12.11;100.00;101163.16;5055148;28;20389;-75
2022/10/25 00:15:52;;;;;;;12.70;2.65;;;;;;;12.12;100.00;101164.81;5055353;28;20115;-76
2022/10/25 00:18:17;;;;;;;8.88;2.42;;;;;;;12.13;100.00;101169.19;5054718;28;20065;-76
2022/10/25 00:20:45;;;;;;;10.38;2.25;;;;;;;12.13;100.00;101172.69;5054534;28;20055;-75
2022/10/25 00:23:11;;;;;;;15.43;2.58;;;;;;;12.14;100.00;101174.38;5055055;28;20041;-76
2022/10/25 00:25:37;;;;;;;11.43;2.25;;;;;;;12.16;100.00;101176.91;5054692;28;20040;-76
2022/10/25 00:28:02;;;;;;;8.20;1.88;;;;;;;12.16;100.00;101174.22;5054667;28;20123;-77
2022/10/25 00:30:29;;;;;;;12.23;2.97;;;;;;;12.19;100.00;101173.13;5054530;28;20444;-74
2022/10/25 00:32:54;;;;;;;14.40;2.38;;;;;;;12.18;100.00;101169.56;5054934;28;20041;-75
2022/10/25 00:35:20;;;;;;;7.53;1.75;;;;;;;12.20;100.00;101182.81;5054479;28;20033;-76
2022/10/25 00:37:45;;;;;;;13.13;2.40;;;;;;;12.19;100.00;101179.28;5037348;28;20098;-76
2022/10/25 00:40:11;;;;;;;11.93;2.30;;;;;;;12.16;100.00;101179.56;5054893;28;20112;-74
2022/10/25 00:42:36;;;;;;;11.02;2.20;;;;;;;12.13;100.00;101185.19;5054166;28;20068;-75
2022/10/25 00:45:16;;;;;;;14.23;2.60;;;;;;;12.08;100.00;101176.78;5054691;28;20036;-75
2022/10/25 00:47:56;;;;;;;9.05;1.63;;;;;;;12.04;100.00;101175.34;5054283;28;20032;-75
2022/10/25 00:50:46;;;;;;;12.60;2.80;;;;;;;11.95;100.00;101183.19;5054276;28;20025;-75
2022/10/25 00:53:17;;;;;;;17.20;2.28;;;;;;;11.88;100.00;101183.88;5054539;28;20083;-75
2022/10/25 00:55:47;;;;;;;10.18;2.00;;;;;;;11.82;100.00;101172.78;5054052;28;20029;-75
2022/10/25 00:58:18;;;;;;;12.00;2.90;;;;;;;11.80;100.00;101196.06;5054423;28;20500;-75
2022/10/25 01:00:44;;;;;;;15.25;2.70;;;;;;;11.84;100.00;101183.31;5053985;28;20079;-75
2022/10/25 01:03:12;;;;;;;15.57;2.92;;;;;;;11.88;100.00;101183.88;5054311;28;20029;-75
2022/10/25 01:05:37;;;;;;;13.10;2.10;;;;;;;11.92;100.00;101188.78;5053605;28;20055;-76
2022/10/25 01:08:04;;;;;;;18.02;2.42;;;;;;;11.92;100.00;101186.13;5054250;28;20033;-75
2022/10/25 01:10:30;;;;;;;14.40;2.22;;;;;;;11.90;100.00;101200.59;5053896;28;20058;-76
2022/10/25 01:12:55;;;;;;;11.95;2.53;;;;;;;11.89;100.00;101197.06;5054191;28;20041;-75
2022/10/25 01:15:28;;;;;;;17.65;2.33;;;;;;;11.88;100.00;101184.72;5053996;28;20488;-76
2022/10/25 01:18:01;;;;;;;15.10;2.17;;;;;;;11.88;100.00;101195.38;5052685;28;20032;-76
2022/10/25 01:21:04;;;;;;;16.38;2.58;;;;;;;11.89;100.00;101185.56;5053667;28;20055;-76
2022/10/25 01:23:38;;;;;;;20.33;3.42;;;;;;;11.83;100.00;101201.13;5035509;28;20041;-75
2022/10/25 01:26:24;;;;;;;17.55;2.63;;;;;;;11.80;100.00;101192.56;5053940;28;20485;-75
2022/10/25 01:29:03;;;;;;;14.80;2.33;;;;;;;11.79;100.00;101198.88;5054013;28;20429;-75
2022/10/25 01:32:13;;;;;;;15.60;2.80;;;;;;;11.80;100.00;101203.22;5053543;28;20468;-76
2022/10/25 01:34:51;;;;;;;17.00;2.53;;;;;;;11.84;100.00;101204.66;4972077;28;20075;-75
2022/10/25 01:37:26;;;;;;;16.95;2.15;;;;;;;11.81;100.00;101204.94;5048809;28;20037;-75
2022/10/25 01:40:05;;;;;;;16.60;2.53;;;;;;;11.78;100.00;101215.88;5053724;28;20036;-75
2022/10/25 01:42:48;;;;;;;17.65;2.28;;;;;;;11.74;100.00;101209.97;5052988;28;20041;-75
2022/10/25 01:45:47;;;;;;;17.95;2.83;;;;;;;11.74;100.00;101222.44;5053696;28;20083;-75
2022/10/25 01:48:20;;;;;;;14.32;1.98;;;;;;;11.79;100.00;101217.53;5038745;28;20068;-74
2022/10/25 01:50:46;;;;;;;13.85;2.47;;;;;;;11.85;100.00;101208.16;5052872;28;20032;-75
2022/10/25 01:53:13;;;;;;;12.77;2.38;;;;;;;11.86;100.00;101212.50;5053457;28;20064;-75
2022/10/25 01:55:47;;;;;;;16.45;2.95;;;;;;;11.85;100.00;101222.31;5052804;28;20126;-74
2022/10/25 01:58:21;;;;;;;15.32;2.60;;;;;;;11.85;100.00;101226.81;5053418;28;20029;-75
2022/10/25 02:00:52;;;;;;;18.45;3.03;;;;;;;11.94;100.00;101228.69;5052859;28;20522;-75
2022/10/25 02:03:30;;;;;;;19.73;3.22;;;;;;;11.95;100.00;101223.19;5053216;28;20150;-74
2022/10/25 02:06:23;;;;;;;14.57;2.55;;;;;;;11.91;100.00;101227.13;5052988;28;20029;-74
2022/10/25 02:09:04;;;;;;;13.23;2.67;;;;;;;11.90;100.00;101228.09;5052842;28;20032;-74
2022/10/25 02:11:31;;;;;;;21.90;2.67;;;;;;;11.89;100.00;101233.56;5053155;28;20025;-75
2022/10/25 02:14:01;;;;;;;20.17;3.40;;;;;;;11.86;100.00;101233.84;5053078;28;20111;-74
2022/10/25 02:16:57;;;;;;;21.02;3.45;;;;;;;11.79;100.00;101234.41;5052715;28;20419;-74
2022/10/25 02:19:30;;;;;;;14.27;2.75;;;;;;;11.75;100.00;101232.97;5036729;28;20044;-74
2022/10/25 02:21:57;;;;;;;15.52;2.75;;;;;;;11.73;100.00;101231.41;5051991;28;20132;-74
2022/10/25 02:24:27;;;;;;;19.55;2.65;;;;;;;11.65;100.00;101232.09;5052794;28;20040;-74
2022/10/25 02:26:54;;;;;;;18.38;2.63;;;;;;;11.60;100.00;101234.34;5052246;28;20115;-74
2022/10/25 02:29:23;;;;;;;13.15;2.20;;;;;;;11.52;100.00;101235.00;5052397;28;20033;-74
2022/10/25 02:31:49;;;;;;;14.13;2.30;;;;;;;11.43;100.00;101238.50;5052272;28;20163;-74
2022/10/25 02:34:15;;;;;;;15.35;2.45;;;;;;;11.39;100.00;101240.59;5052700;28;20119;-74
2022/10/25 02:36:40;;;;;;;15.32;2.22;;;;;;;11.33;100.00;101243.78;5052229;28;20052;-75
2022/10/25 02:39:06;;;;;;;16.27;2.30;;;;;;;11.28;100.00;101241.50;5052607;28;20048;-74
2022/10/25 02:41:32;;;;;;;14.23;2.38;;;;;;;11.26;100.00;101245.31;5052870;28;20040;-74
2022/10/25 02:43:58;;;;;;;14.82;2.28;;;;;;;11.22;100.00;101247.38;5052097;28;20033;-74
2022/10/25 02:46:24;;;;;;;12.57;2.28;;;;;;;11.21;100.00;101251.03;5052566;28;20048;-74
2022/10/25 02:48:50;;;;;;;16.05;2.20;;;;;;;11.24;100.00;101248.09;5052067;28;20116;-74
2022/10/25 02:51:17;;;;;;;12.35;2.70;;;;;;;11.28;100.00;101246.00;5052291;28;20025;-74
2022/10/25 02:53:42;;;;;;;16.55;2.63;;;;;;;11.32;100.00;101252.75;5051906;28;20385;-74
2022/10/25 02:56:09;;;;;;;12.50;2.33;;;;;;;11.29;100.00;101245.03;5052010;28;20039;-74
2022/10/25 02:58:36;;;;;;;18.27;2.72;;;;;;;11.20;100.00;101252.00;5052393;28;20047;-74
2022/10/25 03:01:03;;;;;;;9.70;2.25;;;;;;;11.14;100.00;101252.53;5034496;28;20090;-74
2022/10/25 03:03:29;;;;;;;21.83;2.95;;;;;;;11.11;100.00;101255.47;5052260;28;20476;-74
2022/10/25 03:05:55;;;;;;;15.35;3.15;;;;;;;11.09;100.00;101257.41;5051807;28;20033;-74
2022/10/25 03:08:21;;;;;;;15.43;2.78;;;;;;;11.10;100.00;101265.25;5052158;28;20032;-74
2022/10/25 03:10:46;;;;;;;19.02;3.30;;;;;;;11.13;100.00;101268.66;5051844;28;20468;-74
2022/10/25 03:13:12;;;;;;;13.35;2.38;;;;;;;11.13;100.00;101263.31;5052210;28;20041;-74
2022/10/25 03:15:37;;;;;;;11.73;2.33;;;;;;;11.13;100.00;101261.50;5052148;28;20025;-73
2022/10/25 03:18:03;;;;;;;15.60;2.60;;;;;;;11.10;100.00;101259.09;5052005;28;20032;-73
2022/10/25 03:20:28;;;;;;;19.73;2.92;;;;;;;11.08;100.00;101269.88;5051770;28;20128;-75
2022/10/25 03:22:53;;;;;;;16.50;2.65;;;;;;;11.08;100.00;101269.88;5051730;28;20480;-75
2022/10/25 03:25:19;;;;;;;16.83;2.13;;;;;;;11.15;100.00;101272.88;5052237;28;20037;-75
2022/10/25 03:27:44;;;;;;;17.40;2.80;;;;;;;11.20;100.00;101275.97;5051731;28;20060;-75
2022/10/25 03:30:12;;;;;;;13.98;2.40;;;;;;;11.24;100.00;101282.72;5051816;28;20033;-74
2022/10/25 03:32:37;;;;;;;19.10;3.10;;;;;;;11.25;100.00;101287.06;5051984;28;20473;-74
2022/10/25 03:35:03;;;;;;;10.93;2.45;;;;;;;11.18;100.00;101288.59;5051827;28;20036;-74
2022/10/25 03:37:28;;;;;;;11.18;2.13;;;;;;;11.12;100.00;101286.44;5052030;28;20072;-74
2022/10/25 03:39:54;;;;;;;23.63;3.60;;;;;;;11.10;100.00;101296.38;5033784;28;20038;-76
2022/10/25 03:42:19;;;;;;;8.07;1.90;;;;;;;11.09;100.00;101297.34;5055601;28;20465;-73
2022/10/25 03:44:45;;;;;;;14.98;2.35;;;;;;;11.11;100.00;101293.59;5055394;28;20041;-76
2022/10/25 03:47:10;;;;;;;15.05;2.97;;;;;;;11.09;100.00;101305.34;5055790;28;20165;-74
2022/10/25 03:49:36;;;;;;;12.07;2.40;;;;;;;11.08;100.00;101307.16;5055731;28;20385;-74
2022/10/25 03:52:01;;;;;;;16.45;3.28;;;;;;;11.12;100.00;101305.06;5055290;28;20040;-73
2022/10/25 03:54:26;;;;;;;17.40;2.63;;;;;;;11.14;100.00;101305.81;5055662;28;20064;-74
2022/10/25 03:56:52;;;;;;;18.23;2.75;;;;;;;11.16;100.00;101308.34;5055209;28;20025;-74
2022/10/25 03:59:17;;;;;;;17.67;2.70;;;;;;;11.13;100.00;101313.91;5055503;28;20492;-75
2022/10/25 04:01:42;;;;;;;19.17;2.75;;;;;;;11.08;100.00;101309.81;5055196;28;20462;-74
2022/10/25 04:04:08;;;;;;;17.15;3.00;;;;;;;11.07;100.00;101318.78;5055183;28;20083;-75
2022/10/25 04:06:33;;;;;;;20.85;3.20;;;;;;;11.03;100.00;101312.06;5055557;28;20033;-75
2022/10/25 04:08:58;;;;;;;19.30;2.67;;;;;;;11.00;100.00;101307.00;5054646;28;20431;-75
2022/10/25 04:11:24;;;;;;;17.85;3.17;;;;;;;10.99;100.00;101315.06;5055346;28;20037;-75
2022/10/25 04:13:49;;;;;;;12.98;2.95;;;;;;;10.94;100.00;101312.81;5054933;28;20120;-75
2022/10/25 04:16:16;;;;;;;17.05;3.10;;;;;;;10.90;100.00;101324.72;5055255;28;20486;-75
2022/10/25 04:18:41;;;;;;;14.13;2.70;;;;;;;10.88;100.00;101319.53;5055222;28;20033;-75
2022/10/25 04:21:06;;;;;;;20.65;3.50;;;;;;;10.91;100.00;101324.59;5054792;28;20106;-75
2022/10/25 04:23:32;;;;;;;18.70;3.20;;;;;;;11.00;100.00;101324.75;5055001;28;20458;-75
2022/10/25 04:25:57;;;;;;;21.90;4.28;;;;;;;11.10;100.00;101344.31;5054309;28;20537;-75
2022/10/25 04:28:23;;;;;;;19.70;3.30;;;;;;;11.17;100.00;101337.50;5055070;28;20041;-75
2022/10/25 04:30:49;;;;;;;20.50;3.35;;;;;;;11.23;100.00;101338.78;5054287;28;20037;-76
2022/10/25 04:33:14;;;;;;;22.48;4.28;;;;;;;11.25;100.00;101343.00;5054577;28;20044;-75
2022/10/25 04:35:39;;;;;;;20.75;3.17;;;;;;;11.28;100.00;101344.56;5054937;28;20094;-75
2022/10/25 04:38:05;;;;;;;16.33;2.97;;;;;;;11.29;100.00;101349.75;5054390;28;20029;-75
2022/10/25 04:40:30;;;;;;;16.45;3.30;;;;;;;11.32;100.00;101351.31;5054775;28;20029;-75
2022/10/25 04:42:56;;;;;;;18.15;3.58;;;;;;;11.36;100.00;101352.75;5054433;28;20065;-74
2022/10/25 04:45:21;;;;;;;12.13;3.33;;;;;;;11.41;100.00;101347.03;5036923;28;20032;-75
2022/10/25 04:47:46;;;;;;;15.75;3.22;;;;;;;11.44;100.00;101358.25;5054472;28;20057;-74
2022/10/25 04:50:12;;;;;;;21.52;3.55;;;;;;;11.47;100.00;101359.81;5053942;28;20075;-74
2022/10/25 04:52:37;;;;;;;17.40;3.50;;;;;;;11.51;100.00;101363.06;5054694;28;20470;-74
2022/10/25 04:55:03;;;;;;;16.98;3.45;;;;;;;11.52;100.00;101367.41;5054188;28;20492;-75
2022/10/25 04:57:29;;;;;;;17.33;3.08;;;;;;;11.54;100.00;101368.13;5054436;28;20064;-75
2022/10/25 04:59:56;;;;;;;21.55;3.30;;;;;;;11.54;100.00;101370.78;5054060;28;20051;-76
2022/10/25 05:02:22;;;;;;;21.85;3.38;;;;;;;11.54;100.00;101373.44;5054312;28;20047;-75
2022/10/25 05:04:47;;;;;;;12.60;3.10;;;;;;;11.55;100.00;101370.66;5054532;28;20175;-75
2022/10/25 05:07:16;;;;;;;19.65;3.15;;;;;;;11.56;100.00;101371.50;5054300;28;20037;-75
2022/10/25 05:09:42;;;;;;;21.95;3.08;;;;;;;11.52;100.00;101384.25;5054054;28;20500;-75
2022/10/25 05:12:07;;;;;;;18.38;3.33;;;;;;;11.46;100.00;101376.78;5053893;28;20033;-75
2022/10/25 05:14:32;;;;;;;15.00;3.42;;;;;;;11.39;100.00;101376.47;5053921;28;20064;-75
2022/10/25 05:16:58;;;;;;;14.75;2.75;;;;;;;11.32;100.00;101382.47;5052515;28;20036;-75
2022/10/25 05:19:23;;;;;;;22.00;3.80;;;;;;;11.25;100.00;101384.78;5054068;28;20041;-75
2022/10/25 05:21:48;;;;;;;22.23;3.65;;;;;;;11.18;100.00;101379.16;5053775;28;20081;-75
2022/10/25 05:24:14;;;;;;;20.10;3.58;;;;;;;11.16;100.00;101386.41;5053630;28;20185;-75
2022/10/25 05:26:39;;;;;;;20.60;3.67;;;;;;;11.13;100.00;101386.66;5053905;28;20029;-74
2022/10/25 05:29:04;;;;;;;17.73;3.13;;;;;;;11.07;100.00;101382.69;5053284;28;20116;-75
2022/10/25 05:31:30;;;;;;;15.43;3.53;;;;;;;11.02;100.00;101397.38;5019496;28;20063;-75
2022/10/25 05:34:00;;;;;;;19.48;3.65;;;;;;;10.96;100.00;101390.75;5053578;28;20068;-77
2022/10/25 05:36:28;;;;;;;15.27;3.50;;;;;;;10.97;100.00;101400.41;5053794;28;20052;-74
2022/10/25 05:38:53;;;;;;;17.02;3.67;;;;;;;10.96;100.00;101404.06;5053446;28;20029;-74
2022/10/25 05:41:19;;;;;;;19.48;3.72;;;;;;;10.96;100.00;101400.53;5053275;28;20087;-73
2022/10/25 05:43:45;;;;;;;20.10;3.13;;;;;;;10.94;100.00;101409.53;5053560;28;20040;-74
2022/10/25 05:46:19;;;;;;;17.95;3.80;;;;;;;10.93;100.00;101407.81;5052849;28;20488;-74
2022/10/25 05:48:45;;;;;;;15.35;3.25;;;;;;;10.96;100.00;101408.53;5053355;28;20036;-74
2022/10/25 05:51:21;;;;;;;14.32;4.07;;;;;;;10.94;100.00;101403.31;5053114;28;20040;-74
2022/10/25 05:53:51;;;;;;;12.07;3.78;;;;;;;10.91;100.00;101417.75;5053352;28;20059;-74
2022/10/25 05:56:18;;;;;;;23.65;4.80;;;;;;;10.87;100.00;101416.31;5035142;28;20424;-74
2022/10/25 05:58:44;;;;;;;16.52;3.80;;;;;;;10.84;100.00;101413.03;5053265;28;20025;-74
2022/10/25 06:01:11;;;;;;;20.42;4.80;;;;;;;10.85;100.00;101425.41;5052604;28;20056;-74
2022/10/25 06:03:37;;;;;;;16.77;5.05;;;;;;;10.86;100.00;101425.25;5052466;28;20029;-74
2022/10/25 06:06:07;;;;;;;13.40;4.55;;;;;;;10.86;100.00;101429.75;5052825;28;20033;-74
2022/10/25 06:08:34;;;;;;;14.50;4.68;;;;;;;10.84;100.00;101431.69;5053194;28;20086;-74
2022/10/25 06:11:05;;;;;;;19.38;4.80;;;;;;;10.81;100.00;101427.47;5053173;28;20330;-74
2022/10/25 06:13:31;;;;;;;14.68;4.47;;;;;;;10.76;100.00;101430.53;5053069;28;20043;-74
2022/10/25 06:15:56;;;;;;;21.73;5.35;;;;;;;10.71;100.00;101431.88;5052853;28;20029;-74
2022/10/25 06:18:22;;;;;;;21.30;5.30;;;;;;;10.65;100.00;101430.53;5052189;28;20032;-74
2022/10/25 06:20:47;;;;;;;19.40;5.18;;;;;;;10.62;100.00;101443.25;5052995;28;20141;-74
2022/10/25 06:23:12;;;;;;;19.48;4.80;;;;;;;10.60;100.00;101446.06;5052254;28;20116;-74
2022/10/25 06:25:38;;;;;;;16.58;5.00;;;;;;;10.57;100.00;101449.78;5052466;28;20025;-74
2022/10/25 06:28:04;;;;;;;19.83;5.13;;;;;;;10.52;100.00;101443.16;5051905;28;20033;-75
2022/10/25 06:30:31;;;;;;;20.70;5.20;;;;;;;10.50;100.00;101448.59;5052336;28;20029;-74
2022/10/25 06:32:56;;;;;;;23.48;5.68;;;;;;;10.51;100.00;101454.75;5052326;28;20041;-74
2022/10/25 06:35:22;;;;;;;24.92;5.60;;;;;;;10.53;100.00;101455.50;5051931;28;20029;-74
2022/10/25 06:37:47;;;;;;;19.85;5.85;;;;;;;10.55;100.00;101456.19;5034173;28;20071;-74
2022/10/25 06:40:12;;;;;;;21.92;6.25;;;;;;;10.62;100.00;101453.91;5051984;28;20029;-75
2022/10/25 06:42:38;;;;;;;20.73;5.72;;;;;;;10.64;100.00;101466.09;5052222;28;20033;-74
2022/10/25 06:45:04;;;;;;;21.38;5.97;;;;;;;10.73;100.00;101459.19;5052117;28;20025;-74
2022/10/25 06:47:29;;;;;;;19.73;5.55;;;;;;;10.77;100.00;101472.13;5052284;28;20116;-74
2022/10/25 06:49:54;;;;;;;18.48;5.90;;;;;;;10.80;100.00;101465.72;5052087;28;20072;-75
2022/10/25 06:52:20;;;;;;;15.43;6.57;;;;;;;10.80;100.00;101481.69;5033691;28;20040;-74
2022/10/25 06:54:45;;;;;;;16.98;6.30;;;;;;;10.79;100.00;101474.66;5051916;28;20033;-74
2022/10/25 06:57:10;;;;;;;17.75;6.43;;;;;;;10.82;100.00;101493.03;5051594;28;20036;-74
2022/10/25 06:59:36;;;;;;;23.40;7.57;;;;;;;10.88;100.00;101492.56;5051752;28;20159;-74
2022/10/25 07:02:01;;;;;;;16.15;6.75;;;;;;;10.92;100.00;101490.47;5051604;28;20033;-74
2022/10/25 07:04:26;;;;;;;27.77;8.15;;;;;;;10.97;100.00;101498.09;5051790;28;20040;-74
2022/10/25 07:06:52;;;;;;;28.17;8.45;;;;;;;11.01;100.00;101496.88;5052025;28;20033;-74
2022/10/25 07:09:17;;;;;;;23.50;7.00;;;;;;;11.00;100.00;101497.84;5051615;28;20051;-74
2022/10/25 07:11:44;;;;;;;25.63;8.07;;;;;;;10.96;100.00;101496.38;5052112;28;20119;-73
2022/10/25 07:14:10;;;;;;;20.60;7.13;;;;;;;10.93;100.00;101502.84;5051810;28;20041;-74
2022/10/25 07:16:36;;;;;;;18.42;7.15;;;;;;;10.93;100.00;101501.00;5056601;28;20037;-74
2022/10/25 07:19:03;;;;;;;23.60;7.43;;;;;;;10.96;100.00;101507.03;5056290;28;20048;-73
2022/10/25 07:21:30;;;;;;;18.98;6.70;;;;;;;10.97;100.00;101516.72;5055780;28;20044;-74
2022/10/25 07:23:55;;;;;;;17.10;6.60;;;;;;;10.97;100.00;101511.41;5056085;28;20492;-73
2022/10/25 07:26:33;;;;;;;23.65;7.13;;;;;;;10.99;100.00;101512.97;5055958;28;20045;-74
2022/10/25 07:28:59;;;;;;;15.20;6.40;;;;;;;10.98;100.00;101513.09;5038370;28;20104;-73
2022/10/25 07:31:30;;;;;;;19.25;6.30;;;;;;;11.02;100.00;101517.22;5055921;28;20452;-73
2022/10/25 07:33:58;;;;;;;21.40;6.07;;;;;;;11.05;100.00;101522.28;5055746;28;20041;-73
2022/10/25 07:36:24;;;;;;;14.48;5.70;;;;;;;11.06;100.00;101521.28;5037657;28;20056;-74
2022/10/25 07:38:49;;;;;;;24.20;6.50;;;;;;;11.07;100.00;101525.66;5056046;28;20466;-74
2022/10/25 07:41:15;;;;;;;20.88;6.40;;;;;;;11.09;100.00;101535.22;5055369;28;20033;-73
2022/10/25 07:43:40;;;;;;;17.40;5.53;;;;;;;11.11;100.00;101532.44;5055923;28;20445;-74
2022/10/25 07:46:05;;;;;;;13.45;5.95;;;;;;;11.16;100.00;101540.88;5055778;28;20121;-74
2022/10/25 07:48:31;;;;;;;14.55;5.60;;;;;;;11.21;100.00;101528.06;5055088;28;20029;-74
2022/10/25 07:50:56;;;;;;;16.90;6.28;;;;;;;11.25;100.00;101533.97;5055544;28;20048;-74
2022/10/25 07:53:22;;;;;;;14.05;5.80;;;;;;;11.24;100.00;101527.78;5055246;28;20033;-74
2022/10/25 07:55:51;;;;;;;19.23;6.70;;;;;;;11.28;100.00;101537.19;5055618;28;20557;-74
2022/10/25 07:58:16;;;;;;;21.48;6.57;;;;;;;11.40;100.00;101542.50;5054880;28;20388;-75
2022/10/25 08:00:41;;;;;;;15.45;7.05;;;;;;;11.51;100.00;101542.47;5055525;28;20033;-74
2022/10/25 08:03:07;;;;;;;18.98;7.25;;;;;;;11.64;100.00;101540.47;5055351;28;20071;-74
2022/10/25 08:05:32;;;;;;;15.20;6.53;;;;;;;11.70;100.00;101544.41;5054862;28;20483;-75
2022/10/25 08:07:57;;;;;;;18.63;6.25;;;;;;;11.72;100.00;101544.28;5055052;28;20108;-73
2022/10/25 08:10:23;;;;;;;15.13;6.28;;;;;;;11.73;100.00;101546.81;5054771;28;20064;-73
2022/10/25 08:12:49;;;;;;;13.95;5.85;;;;;;;11.85;100.00;101555.59;5054849;28;20067;-73
2022/10/25 08:15:16;;;;;;;13.98;6.10;;;;;;;12.06;100.00;101558.31;5055222;28;20064;-74
2022/10/25 08:17:41;;;;;;;10.43;4.50;;;;;;;12.25;100.00;101565.56;5054995;28;20079;-74
2022/10/25 08:20:07;;;;;;;8.07;4.15;;;;;;;12.46;100.00;101546.84;5055010;28;20057;-74
2022/10/25 08:22:33;;;;;;;8.85;4.00;;;;;;;12.59;100.00;101561.81;5054518;28;20090;-75
2022/10/25 08:24:59;;;;;;;11.10;4.35;;;;;;;12.54;100.00;101562.22;5055034;28;20668;-75
2022/10/25 08:27:24;;;;;;;10.98;4.28;;;;;;;12.53;100.00;101560.50;5053826;28;20033;-75
2022/10/25 08:29:50;;;;;;;12.35;4.63;;;;;;;12.56;100.00;101572.75;5054938;28;20033;-75
2022/10/25 08:32:15;;;;;;;12.85;4.53;;;;;;;12.52;100.00;101574.81;5054809;28;20060;-75
2022/10/25 08:34:41;;;;;;;12.73;5.47;;;;;;;12.58;100.00;101560.09;5054369;28;20083;-75
2022/10/25 08:37:09;;;;;;;12.15;4.40;;;;;;;12.70;100.00;101564.34;5054336;28;20406;-75
2022/10/25 08:39:35;;;;;;;14.73;4.70;;;;;;;12.90;100.00;101572.41;5053995;28;20539;-74
2022/10/25 08:42:01;;;;;;;7.72;3.80;;;;;;;13.11;100.00;101565.19;5054300;28;20029;-75
2022/10/25 08:44:51;;;;;;;16.85;4.78;;;;;;;13.23;100.00;101564.06;5053908;28;20484;-75
2022/10/25 08:47:25;;;;;;;11.85;4.78;;;;;;;13.27;100.00;101559.31;5054327;28;20025;-75
2022/10/25 08:50:03;;;;;;;12.48;4.78;;;;;;;13.63;100.00;101564.09;5054353;28;20464;-75
2022/10/25 08:52:34;;;;;;;15.85;4.20;;;;;;;13.78;100.00;101572.53;5054082;28;20033;-74
2022/10/25 08:55:01;;;;;;;;;;;;;;;14.10;100.00;101566.84;5054782;28;20413;-74
2022/10/25 08:57:30;;;;;;;11.55;4.47;;;;;;;14.06;100.00;101558.28;5054024;28;20272;-75
2022/10/25 09:00:00;;;;;;;13.50;4.72;;;;;;;14.17;100.00;101561.78;5054360;28;20021;-75
2022/10/25 09:02:35;;;;;;;11.10;4.82;;;;;;;14.39;100.00;101560.56;5053983;28;20025;-75
2022/10/25 09:05:00;;;;;;;16.02;5.13;;;;;;;14.46;100.00;101559.00;5054626;28;20036;-74
2022/10/25 09:07:52;;;;;;;19.15;5.00;;;;;;;14.57;100.00;101566.00;5053515;28;20033;-75
2022/10/25 09:10:24;;;;;;;;;;;;;;;14.86;100.00;101565.88;5054653;28;20029;-74
2022/10/25 09:13:05;;;;;;;11.60;4.43;;;;;;;15.27;100.00;101563.66;5054012;28;19909;-75
2022/10/25 09:16:14;;;;;;;13.18;4.90;;;;;;;15.32;100.00;101573.94;5053859;28;20033;-75
2022/10/25 09:18:48;;;;;;;17.48;5.43;;;;;;;15.05;100.00;101581.03;5026756;28;20103;-75
2022/10/25 09:21:31;;;;;;;15.80;5.03;;;;;;;14.62;100.00;101587.88;5035722;28;20203;-75
2022/10/25 09:24:39;;;;;;;12.82;4.00;;;;;;;15.03;100.00;101582.16;5053876;28;20021;-74
2022/10/25 09:27:31;;;;;;;13.48;4.78;;;;;;;15.92;100.00;101592.09;5052258;28;20048;-74
2022/10/25 09:30:08;;;;;;;9.93;4.20;;;;;;;15.62;100.00;101594.16;5053886;28;20033;-75
2022/10/25 09:32:56;;;;;;;13.45;4.78;;;;;;;15.46;100.00;101597.50;5052209;28;20037;-75
2022/10/25 09:35:39;;;;;;;12.27;4.57;;;;;;;15.99;100.00;101603.88;5053396;28;20029;-74
2022/10/25 09:38:22;;;;;;;20.52;5.20;;;;;;;15.92;100.00;101605.50;5052621;28;20419;-75
2022/10/25 09:41:04;;;;;;;12.50;5.10;;;;;;;15.50;100.00;101604.25;5052804;28;20033;-75
2022/10/25 09:43:37;;;;;;;12.77;5.15;;;;;;;15.32;100.00;101606.94;5053017;28;20029;-74
2022/10/25 09:46:23;;;;;;;15.75;4.93;;;;;;;15.27;100.00;101605.69;5053428;28;20035;-74
2022/10/25 09:49:01;;;;;;;18.50;4.93;;;;;;;15.43;100.00;101608.53;5053082;28;20115;-74
2022/10/25 09:51:48;;;;;;;11.13;4.85;;;;;;;15.55;100.00;101614.53;5053536;28;20029;-74
2022/10/25 09:54:27;;;;;;;9.60;4.82;;;;;;;15.47;100.00;101601.88;5053340;28;20029;-74
2022/10/25 09:56:52;;;;;;;13.52;4.75;;;;;;;15.27;100.00;101605.69;5052813;28;20075;-75
2022/10/25 09:59:17;;;;;;;13.77;5.40;;;;;;;15.23;100.00;101612.38;5052869;28;20033;-74
2022/10/25 10:01:43;;;;;;;9.43;5.60;;;;;;;15.18;100.00;101612.81;5018534;28;20032;-74
2022/10/25 10:04:27;;;;;;;9.73;5.15;;;;;;;15.07;100.00;101611.19;5052999;28;20037;-74
2022/10/25 10:06:56;;;;;;;14.90;5.30;;;;;;;15.02;100.00;101615.28;5052765;28;20033;-74
2022/10/25 10:09:27;;;;;;;12.80;5.50;;;;;;;14.95;100.00;101623.09;5052887;28;20502;-74
2022/10/25 10:11:53;;;;;;;13.52;5.28;;;;;;;14.74;100.00;101613.47;5052343;28;20029;-74
2022/10/25 10:14:38;;;;;;;8.05;4.72;;;;;;;14.91;100.00;101621.72;5052879;28;20029;-74
2022/10/25 10:17:05;;;;;;;16.13;5.03;;;;;;;14.94;100.00;101630.31;5052630;28;20079;-75
2022/10/25 10:19:31;;;;;;;11.57;5.22;;;;;;;15.04;100.00;101624.88;5052362;28;20025;-76
2022/10/25 10:22:00;;;;;;;15.80;5.10;;;;;;;15.06;100.00;101628.28;5034530;28;20135;-75
2022/10/25 10:24:33;;;;;;;12.43;5.00;;;;;;;15.21;100.00;101633.09;5052855;28;20071;-74
2022/10/25 10:27:08;;;;;;;11.68;5.22;;;;;;;15.38;100.00;101626.13;5052786;28;20489;-74
2022/10/25 10:29:36;;;;;;;19.30;5.00;;;;;;;15.29;100.00;101623.31;5052005;28;20055;-74
2022/10/25 10:32:05;;;;;;;17.08;5.28;;;;;;;15.31;100.00;101636.59;5052839;28;20323;-74
2022/10/25 10:34:32;;;;;;;13.70;5.40;;;;;;;15.20;100.00;101634.09;5052558;28;20389;-74
2022/10/25 10:37:01;;;;;;;9.25;4.40;;;;;;;15.02;100.00;101637.59;5052604;28;20028;-75
2022/10/25 10:39:27;;;;;;;13.88;4.47;;;;;;;14.89;100.00;101634.41;5052171;28;20399;-74
2022/10/25 10:42:20;;;;;;;15.13;4.75;;;;;;;14.94;100.00;101640.16;5051980;28;20037;-74
2022/10/25 10:45:01;;;;;;;15.20;4.28;;;;;;;15.01;100.00;101638.59;5049026;28;20097;-74
2022/10/25 10:47:32;;;;;;;9.13;3.75;;;;;;;15.06;100.00;101636.31;5052361;28;20033;-74
2022/10/25 10:49:58;;;;;;;9.60;3.97;;;;;;;15.18;100.00;101636.94;5051354;28;20366;-74
2022/10/25 10:52:38;;;;;;;12.02;3.47;;;;;;;15.26;100.00;101636.19;5051991;28;20041;-74
2022/10/25 10:55:04;;;;;;;11.93;4.07;;;;;;;15.38;100.00;101634.16;5052065;28;20039;-74
2022/10/25 10:57:34;;;;;;;21.48;4.93;;;;;;;15.43;100.00;101634.53;5051923;28;20060;-74
2022/10/25 11:00:01;;;;;;;9.93;3.90;;;;;;;15.35;100.00;101635.28;5052008;28;20036;-74
2022/10/25 11:02:37;;;;;;;9.90;3.65;;;;;;;15.23;100.00;101637.34;5052118;28;20040;-74
2022/10/25 11:05:17;;;;;;;11.30;3.50;;;;;;;15.13;100.00;101634.69;5052201;28;20033;-74
2022/10/25 11:07:42;;;;;;;8.30;3.67;;;;;;;15.01;100.00;101635.91;5052033;28;20079;-75
2022/10/25 11:10:14;;;;;;;10.77;3.17;;;;;;;15.01;100.00;101632.38;5051792;28;20032;-75
2022/10/25 11:12:40;;;;;;;9.52;3.20;;;;;;;14.92;100.00;101636.81;5051748;28;20040;-74
2022/10/25 11:15:15;;;;;;;14.48;3.40;;;;;;;14.97;100.00;101640.72;5052074;28;20041;-74
2022/10/25 11:18:08;;;;;;;12.98;3.47;;;;;;;15.08;100.00;101639.69;5051599;28;20025;-73
2022/10/25 11:20:57;;;;;;;13.23;2.95;;;;;;;15.38;100.00;101636.84;5030538;28;20541;-73